sensor_id;sensor_type;location;lat;lon;timestamp;P1;durP1;ratioP1;P2;durP2;ratioP2
73130;SDS011;64204;13.766;100.702;2024-01-15T00:01:50;18.58;;;9.43;;
73130;SDS011;64204;13.766;100.702;2024-01-15T00:04:17;15.20;;;8.57;;
73130;SDS011;64204;13.766;100.702;2024-01-15T00:06:43;15.95;;;9.25;;
73130;SDS011;64204;13.766;100.702;2024-01-15T00:09:09;16.30;;;9.38;;
73130;SDS011;64204;13.766;100.702;2024-01-15T00:11:36;16.17;;;8.43;;
73130;SDS011;64204;13.766;100.702;2024-01-15T00:14:02;13.43;;;8.57;;
73130;SDS011;64204;13.766;100.702;2024-01-15T00:16:29;14.85;;;7.88;;
73130;SDS011;64204;13.766;100.702;2024-01-15T00:18:55;11.95;;;7.45;;
73130;SDS011;64204;13.766;100.702;2024-01-15T00:21:21;14.32;;;7.97;;
73130;SDS011;64204;13.766;100.702;2024-01-15T00:23:48;13.05;;;7.80;;
73130;SDS011;64204;13.766;100.702;2024-01-15T00:26:15;13.73;;;7.63;;
73130;SDS011;64204;13.766;100.702;2024-01-15T00:28:41;15.73;;;8.23;;
73130;SDS011;64204;13.766;100.702;2024-01-15T00:31:08;14.93;;;8.23;;
73130;SDS011;64204;13.766;100.702;2024-01-15T00:33:34;13.75;;;7.55;;
73130;SDS011;64204;13.766;100.702;2024-01-15T00:36:01;14.32;;;7.95;;
73130;SDS011;64204;13.766;100.702;2024-01-15T00:38:31;16.17;;;8.52;;
73130;SDS011;64204;13.766;100.702;2024-01-15T00:40:57;14.88;;;8.30;;
73130;SDS011;64204;13.766;100.702;2024-01-15T00:43:24;13.70;;;7.78;;
73130;SDS011;64204;13.766;100.702;2024-01-15T00:45:50;16.58;;;8.30;;
73130;SDS011;64204;13.766;100.702;2024-01-15T00:48:16;15.13;;;7.22;;
73130;SDS011;64204;13.766;100.702;2024-01-15T00:50:43;14.32;;;7.40;;
73130;SDS011;64204;13.766;100.702;2024-01-15T00:53:09;12.77;;;7.07;;
73130;SDS011;64204;13.766;100.702;2024-01-15T00:55:36;13.02;;;6.78;;
73130;SDS011;64204;13.766;100.702;2024-01-15T00:58:06;12.05;;;6.90;;
73130;SDS011;64204;13.766;100.702;2024-01-15T01:00:32;15.07;;;6.80;;
73130;SDS011;64204;13.766;100.702;2024-01-15T01:02:58;13.32;;;7.00;;
73130;SDS011;64204;13.766;100.702;2024-01-15T01:05:25;10.80;;;6.30;;
73130;SDS011;64204;13.766;100.702;2024-01-15T01:07:51;18.10;;;6.90;;
73130;SDS011;64204;13.766;100.702;2024-01-15T01:10:18;10.32;;;6.20;;
73130;SDS011;64204;13.766;100.702;2024-01-15T01:12:44;19.05;;;7.88;;
73130;SDS011;64204;13.766;100.702;2024-01-15T01:15:10;11.93;;;6.50;;
73130;SDS011;64204;13.766;100.702;2024-01-15T01:17:37;15.10;;;7.35;;
73130;SDS011;64204;13.766;100.702;2024-01-15T01:20:03;16.92;;;7.35;;
73130;SDS011;64204;13.766;100.702;2024-01-15T01:22:33;11.23;;;6.60;;
73130;SDS011;64204;13.766;100.702;2024-01-15T01:25:00;15.77;;;7.78;;
73130;SDS011;64204;13.766;100.702;2024-01-15T01:27:26;18.50;;;7.63;;
73130;SDS011;64204;13.766;100.702;2024-01-15T01:29:53;14.57;;;7.22;;
73130;SDS011;64204;13.766;100.702;2024-01-15T01:32:19;12.00;;;6.60;;
73130;SDS011;64204;13.766;100.702;2024-01-15T01:34:46;17.15;;;7.72;;
73130;SDS011;64204;13.766;100.702;2024-01-15T01:37:12;16.27;;;7.85;;
73130;SDS011;64204;13.766;100.702;2024-01-15T01:39:40;12.65;;;6.45;;
73130;SDS011;64204;13.766;100.702;2024-01-15T01:42:07;10.68;;;6.07;;
73130;SDS011;64204;13.766;100.702;2024-01-15T01:44:33;12.32;;;7.07;;
73130;SDS011;64204;13.766;100.702;2024-01-15T01:47:00;14.23;;;6.97;;
73130;SDS011;64204;13.766;100.702;2024-01-15T01:49:27;10.18;;;6.38;;
73130;SDS011;64204;13.766;100.702;2024-01-15T01:51:57;21.25;;;7.32;;
73130;SDS011;64204;13.766;100.702;2024-01-15T01:54:25;11.95;;;7.07;;
73130;SDS011;64204;13.766;100.702;2024-01-15T01:56:53;12.50;;;6.40;;
73130;SDS011;64204;13.766;100.702;2024-01-15T01:59:20;11.63;;;6.07;;
73130;SDS011;64204;13.766;100.702;2024-01-15T02:01:46;10.77;;;6.20;;
73130;SDS011;64204;13.766;100.702;2024-01-15T02:04:14;12.35;;;7.20;;
73130;SDS011;64204;13.766;100.702;2024-01-15T02:06:41;13.15;;;7.00;;
73130;SDS011;64204;13.766;100.702;2024-01-15T02:09:08;12.43;;;7.63;;
73130;SDS011;64204;13.766;100.702;2024-01-15T02:11:35;14.95;;;7.22;;
73130;SDS011;64204;13.766;100.702;2024-01-15T02:14:02;13.52;;;7.05;;
73130;SDS011;64204;13.766;100.702;2024-01-15T02:16:29;12.13;;;5.68;;
73130;SDS011;64204;13.766;100.702;2024-01-15T02:18:55;14.25;;;5.95;;
73130;SDS011;64204;13.766;100.702;2024-01-15T02:21:21;15.75;;;7.65;;
73130;SDS011;64204;13.766;100.702;2024-01-15T02:23:48;9.85;;;6.97;;
73130;SDS011;64204;13.766;100.702;2024-01-15T02:26:14;11.75;;;6.75;;
73130;SDS011;64204;13.766;100.702;2024-01-15T02:28:40;14.10;;;7.00;;
73130;SDS011;64204;13.766;100.702;2024-01-15T02:31:09;11.25;;;6.82;;
73130;SDS011;64204;13.766;100.702;2024-01-15T02:33:36;13.05;;;7.70;;
73130;SDS011;64204;13.766;100.702;2024-01-15T02:36:02;14.25;;;7.45;;
73130;SDS011;64204;13.766;100.702;2024-01-15T02:38:29;23.13;;;7.68;;
73130;SDS011;64204;13.766;100.702;2024-01-15T02:40:55;12.55;;;6.38;;
73130;SDS011;64204;13.766;100.702;2024-01-15T02:43:21;12.68;;;6.72;;
73130;SDS011;64204;13.766;100.702;2024-01-15T02:45:48;10.93;;;6.57;;
73130;SDS011;64204;13.766;100.702;2024-01-15T02:48:14;11.73;;;6.15;;
73130;SDS011;64204;13.766;100.702;2024-01-15T02:50:40;11.68;;;6.65;;
73130;SDS011;64204;13.766;100.702;2024-01-15T02:53:07;14.02;;;6.93;;
73130;SDS011;64204;13.766;100.702;2024-01-15T02:55:33;9.88;;;5.90;;
73130;SDS011;64204;13.766;100.702;2024-01-15T02:58:00;9.10;;;5.72;;
73130;SDS011;64204;13.766;100.702;2024-01-15T03:00:26;13.13;;;7.40;;
73130;SDS011;64204;13.766;100.702;2024-01-15T03:02:54;11.32;;;7.00;;
73130;SDS011;64204;13.766;100.702;2024-01-15T03:05:20;12.13;;;6.25;;
73130;SDS011;64204;13.766;100.702;2024-01-15T03:07:47;12.05;;;6.85;;
73130;SDS011;64204;13.766;100.702;2024-01-15T03:10:13;18.33;;;7.70;;
73130;SDS011;64204;13.766;100.702;2024-01-15T03:12:40;12.90;;;7.45;;
73130;SDS011;64204;13.766;100.702;2024-01-15T03:15:06;12.77;;;6.75;;
73130;SDS011;64204;13.766;100.702;2024-01-15T03:17:32;12.20;;;6.20;;
73130;SDS011;64204;13.766;100.702;2024-01-15T03:19:59;11.07;;;6.10;;
73130;SDS011;64204;13.766;100.702;2024-01-15T03:22:29;12.25;;;6.15;;
73130;SDS011;64204;13.766;100.702;2024-01-15T03:24:55;11.10;;;6.45;;
73130;SDS011;64204;13.766;100.702;2024-01-15T03:27:21;11.00;;;6.28;;
73130;SDS011;64204;13.766;100.702;2024-01-15T03:29:48;11.63;;;6.70;;
73130;SDS011;64204;13.766;100.702;2024-01-15T03:32:14;11.30;;;6.32;;
73130;SDS011;64204;13.766;100.702;2024-01-15T03:34:41;12.57;;;5.28;;
73130;SDS011;64204;13.766;100.702;2024-01-15T03:37:07;10.93;;;6.45;;
73130;SDS011;64204;13.766;100.702;2024-01-15T03:39:34;13.27;;;6.35;;
73130;SDS011;64204;13.766;100.702;2024-01-15T03:42:00;10.68;;;5.93;;
73130;SDS011;64204;13.766;100.702;2024-01-15T03:44:27;11.82;;;5.93;;
73130;SDS011;64204;13.766;100.702;2024-01-15T03:46:53;10.60;;;6.22;;
73130;SDS011;64204;13.766;100.702;2024-01-15T03:49:19;11.65;;;5.55;;
73130;SDS011;64204;13.766;100.702;2024-01-15T03:51:46;11.30;;;6.45;;
73130;SDS011;64204;13.766;100.702;2024-01-15T03:54:12;9.32;;;5.40;;
73130;SDS011;64204;13.766;100.702;2024-01-15T03:56:38;12.95;;;5.57;;
73130;SDS011;64204;13.766;100.702;2024-01-15T03:59:05;12.55;;;6.05;;
73130;SDS011;64204;13.766;100.702;2024-01-15T04:01:31;11.25;;;5.65;;
73130;SDS011;64204;13.766;100.702;2024-01-15T04:03:57;9.27;;;5.63;;
73130;SDS011;64204;13.766;100.702;2024-01-15T04:06:24;13.55;;;6.50;;
73130;SDS011;64204;13.766;100.702;2024-01-15T04:08:50;11.27;;;5.68;;
73130;SDS011;64204;13.766;100.702;2024-01-15T04:11:17;10.93;;;6.18;;
73130;SDS011;64204;13.766;100.702;2024-01-15T04:13:43;13.50;;;6.60;;
73130;SDS011;64204;13.766;100.702;2024-01-15T04:16:09;16.00;;;5.78;;
73130;SDS011;64204;13.766;100.702;2024-01-15T04:18:36;13.27;;;6.68;;
73130;SDS011;64204;13.766;100.702;2024-01-15T04:21:04;16.00;;;6.95;;
73130;SDS011;64204;13.766;100.702;2024-01-15T04:23:32;8.23;;;5.55;;
73130;SDS011;64204;13.766;100.702;2024-01-15T04:25:58;10.93;;;5.82;;
73130;SDS011;64204;13.766;100.702;2024-01-15T04:28:25;11.15;;;5.95;;
73130;SDS011;64204;13.766;100.702;2024-01-15T04:30:51;7.78;;;5.40;;
73130;SDS011;64204;13.766;100.702;2024-01-15T04:33:17;9.63;;;5.95;;
73130;SDS011;64204;13.766;100.702;2024-01-15T04:35:44;9.75;;;5.90;;
73130;SDS011;64204;13.766;100.702;2024-01-15T04:38:10;10.60;;;5.22;;
73130;SDS011;64204;13.766;100.702;2024-01-15T04:40:37;9.05;;;5.15;;
73130;SDS011;64204;13.766;100.702;2024-01-15T04:43:03;8.23;;;4.78;;
73130;SDS011;64204;13.766;100.702;2024-01-15T04:45:29;10.13;;;5.10;;
73130;SDS011;64204;13.766;100.702;2024-01-15T04:47:56;13.52;;;4.88;;
73130;SDS011;64204;13.766;100.702;2024-01-15T04:50:23;8.35;;;5.15;;
73130;SDS011;64204;13.766;100.702;2024-01-15T04:52:49;8.77;;;4.85;;
73130;SDS011;64204;13.766;100.702;2024-01-15T04:55:16;7.35;;;4.63;;
73130;SDS011;64204;13.766;100.702;2024-01-15T04:57:42;11.35;;;4.75;;
73130;SDS011;64204;13.766;100.702;2024-01-15T05:00:09;8.95;;;4.95;;
73130;SDS011;64204;13.766;100.702;2024-01-15T05:02:36;9.15;;;4.82;;
73130;SDS011;64204;13.766;100.702;2024-01-15T05:05:02;11.40;;;4.82;;
73130;SDS011;64204;13.766;100.702;2024-01-15T05:07:29;11.23;;;4.85;;
73130;SDS011;64204;13.766;100.702;2024-01-15T05:09:55;15.40;;;4.75;;
73130;SDS011;64204;13.766;100.702;2024-01-15T05:12:22;6.38;;;4.30;;
73130;SDS011;64204;13.766;100.702;2024-01-15T05:14:50;11.27;;;4.60;;
73130;SDS011;64204;13.766;100.702;2024-01-15T05:17:17;7.07;;;4.00;;
73130;SDS011;64204;13.766;100.702;2024-01-15T05:19:43;9.75;;;5.20;;
73130;SDS011;64204;13.766;100.702;2024-01-15T05:22:09;8.60;;;4.03;;
73130;SDS011;64204;13.766;100.702;2024-01-15T05:24:36;13.75;;;5.18;;
73130;SDS011;64204;13.766;100.702;2024-01-15T05:27:02;11.13;;;5.10;;
73130;SDS011;64204;13.766;100.702;2024-01-15T05:29:29;11.82;;;4.70;;
73130;SDS011;64204;13.766;100.702;2024-01-15T05:31:55;8.35;;;5.47;;
73130;SDS011;64204;13.766;100.702;2024-01-15T05:34:21;23.55;;;5.38;;
73130;SDS011;64204;13.766;100.702;2024-01-15T05:36:48;11.65;;;5.05;;
73130;SDS011;64204;13.766;100.702;2024-01-15T05:39:14;8.98;;;4.72;;
73130;SDS011;64204;13.766;100.702;2024-01-15T05:41:41;9.25;;;4.63;;
73130;SDS011;64204;13.766;100.702;2024-01-15T05:44:07;11.00;;;5.00;;
73130;SDS011;64204;13.766;100.702;2024-01-15T05:46:37;8.45;;;4.68;;
73130;SDS011;64204;13.766;100.702;2024-01-15T05:49:03;7.80;;;4.47;;
73130;SDS011;64204;13.766;100.702;2024-01-15T05:51:29;8.77;;;4.45;;
73130;SDS011;64204;13.766;100.702;2024-01-15T05:53:56;9.60;;;4.47;;
73130;SDS011;64204;13.766;100.702;2024-01-15T05:56:22;8.15;;;4.22;;
73130;SDS011;64204;13.766;100.702;2024-01-15T05:58:49;7.38;;;4.32;;
73130;SDS011;64204;13.766;100.702;2024-01-15T06:01:16;7.85;;;4.60;;
73130;SDS011;64204;13.766;100.702;2024-01-15T06:03:42;8.32;;;4.80;;
73130;SDS011;64204;13.766;100.702;2024-01-15T06:06:09;9.07;;;5.13;;
73130;SDS011;64204;13.766;100.702;2024-01-15T06:08:35;8.70;;;4.85;;
73130;SDS011;64204;13.766;100.702;2024-01-15T06:11:01;8.68;;;4.97;;
73130;SDS011;64204;13.766;100.702;2024-01-15T06:13:28;11.48;;;4.68;;
73130;SDS011;64204;13.766;100.702;2024-01-15T06:15:54;11.30;;;4.80;;
73130;SDS011;64204;13.766;100.702;2024-01-15T06:18:21;9.20;;;5.00;;
73130;SDS011;64204;13.766;100.702;2024-01-15T06:20:47;7.70;;;4.53;;
73130;SDS011;64204;13.766;100.702;2024-01-15T06:23:13;9.70;;;4.82;;
73130;SDS011;64204;13.766;100.702;2024-01-15T06:25:40;14.18;;;5.63;;
73130;SDS011;64204;13.766;100.702;2024-01-15T06:28:06;7.28;;;4.70;;
73130;SDS011;64204;13.766;100.702;2024-01-15T06:30:32;9.85;;;4.68;;
73130;SDS011;64204;13.766;100.702;2024-01-15T06:32:59;8.05;;;4.88;;
73130;SDS011;64204;13.766;100.702;2024-01-15T06:35:25;7.05;;;4.30;;
73130;SDS011;64204;13.766;100.702;2024-01-15T06:37:52;8.07;;;4.57;;
73130;SDS011;64204;13.766;100.702;2024-01-15T06:40:18;7.43;;;4.55;;
73130;SDS011;64204;13.766;100.702;2024-01-15T06:42:44;8.85;;;4.32;;
73130;SDS011;64204;13.766;100.702;2024-01-15T06:45:11;7.38;;;3.97;;
73130;SDS011;64204;13.766;100.702;2024-01-15T06:47:37;7.35;;;4.38;;
73130;SDS011;64204;13.766;100.702;2024-01-15T06:50:04;6.60;;;4.15;;
73130;SDS011;64204;13.766;100.702;2024-01-15T06:52:32;8.57;;;4.70;;
73130;SDS011;64204;13.766;100.702;2024-01-15T06:54:58;8.23;;;4.25;;
73130;SDS011;64204;13.766;100.702;2024-01-15T06:57:25;12.48;;;4.47;;
73130;SDS011;64204;13.766;100.702;2024-01-15T06:59:51;7.05;;;4.22;;
73130;SDS011;64204;13.766;100.702;2024-01-15T07:02:17;7.78;;;4.20;;
73130;SDS011;64204;13.766;100.702;2024-01-15T07:04:44;9.02;;;4.40;;
73130;SDS011;64204;13.766;100.702;2024-01-15T07:07:10;5.43;;;4.15;;
73130;SDS011;64204;13.766;100.702;2024-01-15T07:09:36;7.38;;;4.57;;
73130;SDS011;64204;13.766;100.702;2024-01-15T07:12:03;9.27;;;3.92;;
73130;SDS011;64204;13.766;100.702;2024-01-15T07:14:29;9.30;;;4.70;;
73130;SDS011;64204;13.766;100.702;2024-01-15T07:16:56;7.45;;;4.20;;
73130;SDS011;64204;13.766;100.702;2024-01-15T07:19:22;7.28;;;3.92;;
73130;SDS011;64204;13.766;100.702;2024-01-15T07:21:48;7.85;;;3.92;;
73130;SDS011;64204;13.766;100.702;2024-01-15T07:24:15;6.43;;;3.85;;
73130;SDS011;64204;13.766;100.702;2024-01-15T07:26:41;8.27;;;4.18;;
73130;SDS011;64204;13.766;100.702;2024-01-15T07:29:08;6.50;;;4.18;;
73130;SDS011;64204;13.766;100.702;2024-01-15T07:31:34;7.40;;;3.83;;
73130;SDS011;64204;13.766;100.702;2024-01-15T07:34:00;8.25;;;4.72;;
73130;SDS011;64204;13.766;100.702;2024-01-15T07:36:30;7.47;;;4.03;;
73130;SDS011;64204;13.766;100.702;2024-01-15T07:39:05;5.45;;;4.10;;
73130;SDS011;64204;13.766;100.702;2024-01-15T07:41:31;9.05;;;3.95;;
73130;SDS011;64204;13.766;100.702;2024-01-15T07:43:58;6.78;;;4.10;;
73130;SDS011;64204;13.766;100.702;2024-01-15T07:46:24;7.32;;;4.70;;
73130;SDS011;64204;13.766;100.702;2024-01-15T07:48:51;7.05;;;4.32;;
73130;SDS011;64204;13.766;100.702;2024-01-15T07:51:24;9.35;;;3.55;;
73130;SDS011;64204;13.766;100.702;2024-01-15T07:53:53;5.97;;;4.10;;
73130;SDS011;64204;13.766;100.702;2024-01-15T07:56:20;6.03;;;3.83;;
73130;SDS011;64204;13.766;100.702;2024-01-15T07:58:47;6.85;;;3.90;;
73130;SDS011;64204;13.766;100.702;2024-01-15T08:01:13;8.27;;;4.55;;
73130;SDS011;64204;13.766;100.702;2024-01-15T08:03:39;6.95;;;4.20;;
73130;SDS011;64204;13.766;100.702;2024-01-15T08:06:10;6.38;;;4.60;;
73130;SDS011;64204;13.766;100.702;2024-01-15T08:08:37;7.22;;;4.68;;
73130;SDS011;64204;13.766;100.702;2024-01-15T08:11:03;7.57;;;4.88;;
73130;SDS011;64204;13.766;100.702;2024-01-15T08:13:30;12.10;;;5.38;;
73130;SDS011;64204;13.766;100.702;2024-01-15T08:15:56;6.45;;;4.28;;
73130;SDS011;64204;13.766;100.702;2024-01-15T08:18:23;7.15;;;4.53;;
73130;SDS011;64204;13.766;100.702;2024-01-15T08:20:50;6.10;;;4.15;;
73130;SDS011;64204;13.766;100.702;2024-01-15T08:23:17;7.88;;;5.43;;
73130;SDS011;64204;13.766;100.702;2024-01-15T08:25:43;10.52;;;6.05;;
73130;SDS011;64204;13.766;100.702;2024-01-15T08:28:10;9.85;;;5.68;;
73130;SDS011;64204;13.766;100.702;2024-01-15T08:30:36;8.07;;;5.65;;
73130;SDS011;64204;13.766;100.702;2024-01-15T08:33:03;10.35;;;5.47;;
73130;SDS011;64204;13.766;100.702;2024-01-15T08:35:29;12.10;;;5.75;;
73130;SDS011;64204;13.766;100.702;2024-01-15T08:37:55;8.15;;;4.97;;
73130;SDS011;64204;13.766;100.702;2024-01-15T08:40:23;10.57;;;5.20;;
73130;SDS011;64204;13.766;100.702;2024-01-15T08:42:50;7.25;;;4.95;;
73130;SDS011;64204;13.766;100.702;2024-01-15T08:45:16;8.45;;;4.85;;
73130;SDS011;64204;13.766;100.702;2024-01-15T08:47:42;8.77;;;5.57;;
73130;SDS011;64204;13.766;100.702;2024-01-15T08:50:09;8.48;;;4.97;;
73130;SDS011;64204;13.766;100.702;2024-01-15T08:52:35;10.43;;;4.60;;
73130;SDS011;64204;13.766;100.702;2024-01-15T08:55:02;7.30;;;4.57;;
73130;SDS011;64204;13.766;100.702;2024-01-15T08:57:29;7.95;;;5.10;;
73130;SDS011;64204;13.766;100.702;2024-01-15T08:59:56;10.65;;;5.38;;
73130;SDS011;64204;13.766;100.702;2024-01-15T09:02:23;7.03;;;4.80;;
73130;SDS011;64204;13.766;100.702;2024-01-15T09:04:50;9.65;;;5.47;;
73130;SDS011;64204;13.766;100.702;2024-01-15T09:07:17;6.80;;;4.85;;
73130;SDS011;64204;13.766;100.702;2024-01-15T09:09:43;10.07;;;4.78;;
73130;SDS011;64204;13.766;100.702;2024-01-15T09:12:10;8.20;;;4.80;;
73130;SDS011;64204;13.766;100.702;2024-01-15T09:14:36;9.00;;;4.32;;
73130;SDS011;64204;13.766;100.702;2024-01-15T09:17:03;6.22;;;4.30;;
73130;SDS011;64204;13.766;100.702;2024-01-15T09:19:30;7.35;;;4.70;;
73130;SDS011;64204;13.766;100.702;2024-01-15T09:21:56;7.45;;;4.07;;
73130;SDS011;64204;13.766;100.702;2024-01-15T09:24:23;11.05;;;4.70;;
73130;SDS011;64204;13.766;100.702;2024-01-15T09:26:49;10.60;;;4.45;;
73130;SDS011;64204;13.766;100.702;2024-01-15T09:29:16;8.25;;;4.07;;
73130;SDS011;64204;13.766;100.702;2024-01-15T09:31:43;7.22;;;3.97;;
73130;SDS011;64204;13.766;100.702;2024-01-15T09:34:09;7.03;;;4.13;;
73130;SDS011;64204;13.766;100.702;2024-01-15T09:36:40;6.68;;;4.22;;
73130;SDS011;64204;13.766;100.702;2024-01-15T09:39:08;6.57;;;4.32;;
73130;SDS011;64204;13.766;100.702;2024-01-15T09:41:39;6.75;;;4.32;;
73130;SDS011;64204;13.766;100.702;2024-01-15T09:44:05;8.25;;;4.32;;
73130;SDS011;64204;13.766;100.702;2024-01-15T09:46:35;9.68;;;4.60;;
73130;SDS011;64204;13.766;100.702;2024-01-15T09:49:01;6.55;;;3.95;;
73130;SDS011;64204;13.766;100.702;2024-01-15T09:51:30;7.13;;;3.85;;
73130;SDS011;64204;13.766;100.702;2024-01-15T09:53:57;8.40;;;4.40;;
73130;SDS011;64204;13.766;100.702;2024-01-15T09:56:24;6.35;;;4.05;;
73130;SDS011;64204;13.766;100.702;2024-01-15T09:58:50;8.68;;;4.22;;
73130;SDS011;64204;13.766;100.702;2024-01-15T10:01:18;6.22;;;4.13;;
73130;SDS011;64204;13.766;100.702;2024-01-15T10:03:49;6.38;;;4.10;;
73130;SDS011;64204;13.766;100.702;2024-01-15T10:06:16;6.35;;;4.25;;
73130;SDS011;64204;13.766;100.702;2024-01-15T10:08:43;6.57;;;3.85;;
73130;SDS011;64204;13.766;100.702;2024-01-15T10:11:14;9.60;;;5.20;;
73130;SDS011;64204;13.766;100.702;2024-01-15T10:13:44;8.80;;;5.22;;
73130;SDS011;64204;13.766;100.702;2024-01-15T10:16:12;6.40;;;4.18;;
73130;SDS011;64204;13.766;100.702;2024-01-15T10:18:38;10.30;;;5.20;;
73130;SDS011;64204;13.766;100.702;2024-01-15T10:21:08;8.90;;;4.55;;
73130;SDS011;64204;13.766;100.702;2024-01-15T10:23:34;8.52;;;4.68;;
73130;SDS011;64204;13.766;100.702;2024-01-15T10:26:01;7.68;;;4.47;;
73130;SDS011;64204;13.766;100.702;2024-01-15T10:28:29;5.93;;;4.13;;
73130;SDS011;64204;13.766;100.702;2024-01-15T10:30:57;7.97;;;4.85;;
73130;SDS011;64204;13.766;100.702;2024-01-15T10:33:27;7.03;;;4.25;;
73130;SDS011;64204;13.766;100.702;2024-01-15T10:35:54;12.82;;;5.53;;
73130;SDS011;64204;13.766;100.702;2024-01-15T10:38:21;8.55;;;5.05;;
73130;SDS011;64204;13.766;100.702;2024-01-15T10:40:51;7.22;;;4.80;;
73130;SDS011;64204;13.766;100.702;2024-01-15T10:43:18;7.65;;;4.68;;
73130;SDS011;64204;13.766;100.702;2024-01-15T10:45:45;10.10;;;4.72;;
73130;SDS011;64204;13.766;100.702;2024-01-15T10:48:12;9.60;;;4.88;;
73130;SDS011;64204;13.766;100.702;2024-01-15T10:50:39;7.40;;;4.72;;
73130;SDS011;64204;13.766;100.702;2024-01-15T10:53:06;7.47;;;4.30;;
73130;SDS011;64204;13.766;100.702;2024-01-15T10:55:35;7.25;;;4.82;;
73130;SDS011;64204;13.766;100.702;2024-01-15T10:58:02;5.00;;;3.90;;
73130;SDS011;64204;13.766;100.702;2024-01-15T11:00:29;7.88;;;4.20;;
73130;SDS011;64204;13.766;100.702;2024-01-15T11:02:56;7.07;;;4.32;;
73130;SDS011;64204;13.766;100.702;2024-01-15T11:05:23;9.18;;;4.97;;
73130;SDS011;64204;13.766;100.702;2024-01-15T11:07:49;6.78;;;3.90;;
73130;SDS011;64204;13.766;100.702;2024-01-15T11:10:50;10.35;;;5.47;;
73130;SDS011;64204;13.766;100.702;2024-01-15T11:16:05;8.48;;;5.82;;
73130;SDS011;64204;13.766;100.702;2024-01-15T11:21:23;16.05;;;8.45;;
73130;SDS011;64204;13.766;100.702;2024-01-15T11:23:55;14.18;;;6.65;;
73130;SDS011;64204;13.766;100.702;2024-01-15T11:26:30;13.13;;;5.90;;
73130;SDS011;64204;13.766;100.702;2024-01-15T11:34:07;8.65;;;5.13;;
73130;SDS011;64204;13.766;100.702;2024-01-15T11:41:57;8.85;;;5.05;;
73130;SDS011;64204;13.766;100.702;2024-01-15T11:44:25;8.38;;;5.07;;
73130;SDS011;64204;13.766;100.702;2024-01-15T11:46:57;7.65;;;5.20;;
73130;SDS011;64204;13.766;100.702;2024-01-15T11:52:21;6.85;;;4.80;;
73130;SDS011;64204;13.766;100.702;2024-01-15T12:00:17;7.47;;;4.70;;
73130;SDS011;64204;13.766;100.702;2024-01-15T12:02:45;10.27;;;5.38;;
73130;SDS011;64204;13.766;100.702;2024-01-15T12:05:13;10.60;;;5.70;;
73130;SDS011;64204;13.766;100.702;2024-01-15T12:07:40;10.32;;;6.07;;
73130;SDS011;64204;13.766;100.702;2024-01-15T12:10:17;9.40;;;5.47;;
73130;SDS011;64204;13.766;100.702;2024-01-15T12:15:25;8.63;;;5.28;;
73130;SDS011;64204;13.766;100.702;2024-01-15T12:17:57;10.88;;;6.32;;
73130;SDS011;64204;13.766;100.702;2024-01-15T12:20:27;11.50;;;6.40;;
73130;SDS011;64204;13.766;100.702;2024-01-15T12:22:55;10.85;;;6.00;;
73130;SDS011;64204;13.766;100.702;2024-01-15T12:25:22;12.68;;;6.82;;
73130;SDS011;64204;13.766;100.702;2024-01-15T12:27:58;9.25;;;5.75;;
73130;SDS011;64204;13.766;100.702;2024-01-15T12:30:28;12.95;;;6.70;;
73130;SDS011;64204;13.766;100.702;2024-01-15T12:33:01;13.40;;;6.85;;
73130;SDS011;64204;13.766;100.702;2024-01-15T12:35:29;11.82;;;6.03;;
73130;SDS011;64204;13.766;100.702;2024-01-15T12:37:56;10.80;;;5.80;;
73130;SDS011;64204;13.766;100.702;2024-01-15T12:40:23;8.63;;;5.80;;
73130;SDS011;64204;13.766;100.702;2024-01-15T12:42:49;11.05;;;6.28;;
73130;SDS011;64204;13.766;100.702;2024-01-15T12:45:16;11.38;;;6.68;;
73130;SDS011;64204;13.766;100.702;2024-01-15T12:47:43;11.43;;;6.32;;
73130;SDS011;64204;13.766;100.702;2024-01-15T12:50:10;10.25;;;6.25;;
73130;SDS011;64204;13.766;100.702;2024-01-15T12:52:40;12.88;;;7.88;;
73130;SDS011;64204;13.766;100.702;2024-01-15T12:55:07;10.80;;;6.30;;
73130;SDS011;64204;13.766;100.702;2024-01-15T12:57:35;9.63;;;6.18;;
73130;SDS011;64204;13.766;100.702;2024-01-15T13:00:05;10.40;;;5.95;;
73130;SDS011;64204;13.766;100.702;2024-01-15T13:02:41;8.57;;;5.88;;
73130;SDS011;64204;13.766;100.702;2024-01-15T13:05:11;10.23;;;5.60;;
73130;SDS011;64204;13.766;100.702;2024-01-15T13:07:37;12.10;;;7.07;;
73130;SDS011;64204;13.766;100.702;2024-01-15T13:10:05;13.10;;;7.30;;
73130;SDS011;64204;13.766;100.702;2024-01-15T13:12:33;11.73;;;6.32;;
73130;SDS011;64204;13.766;100.702;2024-01-15T13:14:59;10.02;;;6.00;;
73130;SDS011;64204;13.766;100.702;2024-01-15T13:17:28;9.32;;;5.65;;
73130;SDS011;64204;13.766;100.702;2024-01-15T13:19:55;9.68;;;5.63;;
73130;SDS011;64204;13.766;100.702;2024-01-15T13:22:21;8.30;;;5.68;;
73130;SDS011;64204;13.766;100.702;2024-01-15T13:24:48;10.45;;;6.53;;
73130;SDS011;64204;13.766;100.702;2024-01-15T13:27:14;9.45;;;5.28;;
73130;SDS011;64204;13.766;100.702;2024-01-15T13:29:41;7.50;;;5.18;;
73130;SDS011;64204;13.766;100.702;2024-01-15T13:32:08;9.60;;;5.20;;
73130;SDS011;64204;13.766;100.702;2024-01-15T13:34:36;11.25;;;5.95;;
73130;SDS011;64204;13.766;100.702;2024-01-15T13:37:03;8.70;;;5.00;;
73130;SDS011;64204;13.766;100.702;2024-01-15T13:39:29;7.82;;;5.60;;
73130;SDS011;64204;13.766;100.702;2024-01-15T13:41:58;8.75;;;4.93;;
73130;SDS011;64204;13.766;100.702;2024-01-15T13:44:25;9.60;;;5.47;;
73130;SDS011;64204;13.766;100.702;2024-01-15T13:46:53;7.35;;;4.53;;
73130;SDS011;64204;13.766;100.702;2024-01-15T13:49:19;8.27;;;5.15;;
73130;SDS011;64204;13.766;100.702;2024-01-15T13:51:45;8.02;;;4.88;;
73130;SDS011;64204;13.766;100.702;2024-01-15T13:54:12;10.82;;;5.80;;
73130;SDS011;64204;13.766;100.702;2024-01-15T13:56:38;8.52;;;5.25;;
73130;SDS011;64204;13.766;100.702;2024-01-15T13:59:05;13.75;;;5.30;;
73130;SDS011;64204;13.766;100.702;2024-01-15T14:01:32;10.32;;;5.60;;
73130;SDS011;64204;13.766;100.702;2024-01-15T14:03:58;9.43;;;6.05;;
73130;SDS011;64204;13.766;100.702;2024-01-15T14:06:25;7.95;;;5.10;;
73130;SDS011;64204;13.766;100.702;2024-01-15T14:08:51;7.45;;;5.18;;
73130;SDS011;64204;13.766;100.702;2024-01-15T14:11:18;14.63;;;6.35;;
73130;SDS011;64204;13.766;100.702;2024-01-15T14:13:45;11.02;;;5.10;;
73130;SDS011;64204;13.766;100.702;2024-01-15T14:16:13;9.10;;;5.65;;
73130;SDS011;64204;13.766;100.702;2024-01-15T14:18:40;9.57;;;5.85;;
73130;SDS011;64204;13.766;100.702;2024-01-15T14:21:07;10.75;;;5.75;;
73130;SDS011;64204;13.766;100.702;2024-01-15T14:23:33;9.98;;;6.40;;
73130;SDS011;64204;13.766;100.702;2024-01-15T14:26:00;8.30;;;5.32;;
73130;SDS011;64204;13.766;100.702;2024-01-15T14:28:26;8.85;;;5.22;;
73130;SDS011;64204;13.766;100.702;2024-01-15T14:30:53;8.10;;;4.63;;
73130;SDS011;64204;13.766;100.702;2024-01-15T14:33:21;10.77;;;5.30;;
73130;SDS011;64204;13.766;100.702;2024-01-15T14:35:47;10.73;;;5.68;;
73130;SDS011;64204;13.766;100.702;2024-01-15T14:38:14;11.20;;;5.15;;
73130;SDS011;64204;13.766;100.702;2024-01-15T14:40:40;6.57;;;4.32;;
73130;SDS011;64204;13.766;100.702;2024-01-15T14:43:07;7.55;;;4.68;;